Kayu Ramin — 3FPC9 — position and weather

sailwx.info

Track history (hours):
 
Tides and Currents Weather Stations Pressure Air Temp Water Temp Dewpoint Dewpoint Depression Visibility Wind Speed Wind Dir Waves Ship Positions

Kayu Ramin

Last reported at 2014-Jul-22 06:09 UTC. Time now 2014-Jul-28 08:17 UTC.
Position N 22°19' E 119°34'.

Length 225 m; draft 8.7 m.

Type: Cargo ship. MMSI: 354989000.

Date/timePositionNaut miles runAvg speedWind from/ knotsBaromVisibWave heightAir tempDewpointWater temp
2014-Jul-22 06:09N 22°19' E 119°34'712.1
2014-Jul-22 05:32N 22°25' E 119°38'1211.9
2014-Jul-22 04:33N 22°29' E 119°50'1212.2
2014-Jul-22 03:33N 22°41' E 119°51'48311.1
2014-Jul-20 08:10N 30°07' E 123°18'79 4.5
2014-Jul-19 14:32N 31°06' E 122°18'3012.1
2014-Jul-19 12:04N 31°18' E 121°46'610.9
2014-Jul-19 11:33N 31°21' E 121°40'9 9.2
2014-Jul-19 10:33N 31°25' E 121°30'7 6.8
2014-Jul-19 09:33N 31°30' E 121°25'7 6.8
2014-Jul-19 08:28N 31°36' E 121°19'0 0.1
2014-Jul-19 06:14N 31°36' E 121°19'7 9.4
2014-Jul-19 05:30N 31°40' E 121°13'1212.8
2014-Jul-19 04:32N 31°47' E 121°01'4 3.4
2014-Jul-19 03:22N 31°49' E 120°57'0 0.0
2014-Jul-19 02:31N 31°49' E 120°57'0 0.0
2014-Jul-19 01:22N 31°49' E 120°57'0 0.0
2014-Jul-19 00:16N 31°49' E 120°57'0 0.0
2014-Jul-18 23:25N 31°49' E 120°57'0 0.0
2014-Jul-18 22:31N 31°49' E 120°57'0 0.0
2014-Jul-18 21:31N 31°49' E 120°57'0 0.0
2014-Jul-18 20:31N 31°49' E 120°57'0 0.0
2014-Jul-18 19:31N 31°49' E 120°57'0 0.0
2014-Jul-18 18:28N 31°49' E 120°57'0 0.0
2014-Jul-18 17:22N 31°49' E 120°57'0 0.0
2014-Jul-18 16:22N 31°49' E 120°57'0 0.0
2014-Jul-18 15:31N 31°49' E 120°57'0 0.0
2014-Jul-18 14:19N 31°49' E 120°57'0 0.0
2014-Jul-18 13:28N 31°49' E 120°57'0 0.0
2014-Jul-18 12:10N 31°49' E 120°57'0 0.0
2014-Jul-18 11:21N 31°49' E 120°57'0 0.0
2014-Jul-18 10:21N 31°49' E 120°57'0 0.0
2014-Jul-18 09:30N 31°49' E 120°57'0 0.0
2014-Jul-18 08:33N 31°49' E 120°57'0 0.0
2014-Jul-18 07:27N 31°49' E 120°57'0 0.0
2014-Jul-18 06:33N 31°49' E 120°57'0 0.0
2014-Jul-18 05:21N 31°49' E 120°57'0 0.0
2014-Jul-18 04:33N 31°49' E 120°57'0 0.0
2014-Jul-18 03:33N 31°49' E 120°57'0 0.0
2014-Jul-18 02:30N 31°49' E 120°57'0 0.0
2014-Jul-18 01:33N 31°49' E 120°57'0 0.0
2014-Jul-18 00:33N 31°49' E 120°57'0 0.0
2014-Jul-17 23:24N 31°49' E 120°57'0 0.0
2014-Jul-17 22:30N 31°49' E 120°57'0 0.0
2014-Jul-17 21:30N 31°49' E 120°57'0 0.0
2014-Jul-17 20:30N 31°49' E 120°57'0 0.0
2014-Jul-17 19:33N 31°49' E 120°57'0 0.0
2014-Jul-17 18:33N 31°49' E 120°57'0 0.0
2014-Jul-17 17:27N 31°49' E 120°57'0 0.0
2014-Jul-17 16:33N 31°49' E 120°57'0 0.0
2014-Jul-17 15:33N 31°49' E 120°57'0 0.0
2014-Jul-17 14:24N 31°49' E 120°57'0 0.0
2014-Jul-17 13:33N 31°49' E 120°57'0 0.0
2014-Jul-17 12:33N 31°49' E 120°57'0 0.0
2014-Jul-17 11:27N 31°49' E 120°57'0 0.0
2014-Jul-17 10:33N 31°49' E 120°57'0 0.0
2014-Jul-17 09:27N 31°49' E 120°57'0 0.0
2014-Jul-17 08:33N 31°49' E 120°57'0 0.0
2014-Jul-17 07:27N 31°49' E 120°57'0 0.0
2014-Jul-17 06:30N 31°49' E 120°57'0 0.0
2014-Jul-17 05:33N 31°49' E 120°57'0 0.0
2014-Jul-17 04:33N 31°49' E 120°57'0 0.0
2014-Jul-17 03:33N 31°49' E 120°57'0 0.0
2014-Jul-17 02:33N 31°49' E 120°57'0 0.0
2014-Jul-17 01:27N 31°49' E 120°57'0 0.0
2014-Jul-17 00:29N 31°49' E 120°57'0 0.0
2014-Jul-16 23:32N 31°49' E 120°57'0 0.0
2014-Jul-16 22:26N 31°49' E 120°57'0 0.0
2014-Jul-16 21:23N 31°49' E 120°57'0 0.0
2014-Jul-16 20:32N 31°49' E 120°57'0 0.0
2014-Jul-16 19:32N 31°49' E 120°57'0 0.0
2014-Jul-16 18:32N 31°49' E 120°57'0 0.0
2014-Jul-16 17:29N 31°49' E 120°57'0 0.0
2014-Jul-16 16:29N 31°49' E 120°57'0 0.0
2014-Jul-16 15:32N 31°49' E 120°57'0 0.0
2014-Jul-16 14:32N 31°49' E 120°57'0 0.0
2014-Jul-16 13:29N 31°49' E 120°57'0 0.0
2014-Jul-16 12:29N 31°49' E 120°57'0 0.0
2014-Jul-16 11:23N 31°49' E 120°57'0 0.0
2014-Jul-16 10:32N 31°49' E 120°57'0 0.0
2014-Jul-16 09:20N 31°49' E 120°57'0 0.0
2014-Jul-16 08:32N 31°49' E 120°57'0 0.0
2014-Jul-16 07:29N 31°49' E 120°57'0 0.0
2014-Jul-16 06:26N 31°49' E 120°57'0 0.0
2014-Jul-16 05:23N 31°49' E 120°57'0 0.0
2014-Jul-16 04:20N 31°49' E 120°57'0 0.0
2014-Jul-16 03:17N 31°49' E 120°57'0 0.0
2014-Jul-16 02:29N 31°49' E 120°57'0 0.0
2014-Jul-16 01:26N 31°49' E 120°57'0 0.0
2014-Jul-16 00:32N 31°49' E 120°57'0 0.0
2014-Jul-15 23:32N 31°49' E 120°57'0 0.0
2014-Jul-15 22:32N 31°49' E 120°57'0 0.0
2014-Jul-15 21:32N 31°49' E 120°57'0 0.0
2014-Jul-15 20:29N 31°49' E 120°57'0 0.0
2014-Jul-15 19:32N 31°49' E 120°57'0 0.0
2014-Jul-15 18:29N 31°49' E 120°57'0 0.0
2014-Jul-15 17:26N 31°49' E 120°57'0 0.0
2014-Jul-15 16:23N 31°49' E 120°57'0 0.0
2014-Jul-15 15:29N 31°49' E 120°57'0 0.0
2014-Jul-15 14:29N 31°49' E 120°57'0 0.0
2014-Jul-15 13:31N 31°49' E 120°57'0 0.0
2014-Jul-15 12:31N 31°49' E 120°57'0 0.0
2014-Jul-15 11:22N 31°49' E 120°57'0 0.0
2014-Jul-15 10:31N 31°49' E 120°57'0 0.0
2014-Jul-15 09:19N 31°49' E 120°57'0 0.0
2014-Jul-15 08:31N 31°49' E 120°57'0 0.0
2014-Jul-15 07:31N 31°49' E 120°57'0 0.0
2014-Jul-15 06:25N 31°49' E 120°57'0 0.0
2014-Jul-15 05:28N 31°49' E 120°57'0 0.0
2014-Jul-15 04:31N 31°49' E 120°57'0 0.0
2014-Jul-15 03:07N 31°49' E 120°57'0 0.0
2014-Jul-15 02:31N 31°49' E 120°57'0 0.0
2014-Jul-15 01:31N 31°49' E 120°57'0 0.0
2014-Jul-15 00:31N 31°49' E 120°57'0 0.0
2014-Jul-14 23:31N 31°49' E 120°57'0 0.0
2014-Jul-14 22:31N 31°49' E 120°57'0 0.0
2014-Jul-14 21:31N 31°49' E 120°57'0 0.0
2014-Jul-14 20:31N 31°49' E 120°57'0 0.0
2014-Jul-14 19:25N 31°49' E 120°57'0 0.0
2014-Jul-14 18:31N 31°49' E 120°57'0 0.0
2014-Jul-14 17:22N 31°49' E 120°57'0 0.0
2014-Jul-14 16:31N 31°49' E 120°57'0 0.0
2014-Jul-14 15:28N 31°49' E 120°57'0 0.0
2014-Jul-14 14:31N 31°49' E 120°57'0 0.0
2014-Jul-14 13:24N 31°49' E 120°57'0 0.0
2014-Jul-14 12:33N 31°49' E 120°57'0 0.0
2014-Jul-14 11:33N 31°49' E 120°57'0 0.0
2014-Jul-14 10:27N 31°49' E 120°57'0 0.0
2014-Jul-14 09:27N 31°49' E 120°57'0 0.0
2014-Jul-14 08:27N 31°49' E 120°57'0 0.0
2014-Jul-14 07:27N 31°49' E 120°57'0 0.0
2014-Jul-14 06:33N 31°49' E 120°57'0 0.0
2014-Jul-14 05:27N 31°49' E 120°57'0 0.0
2014-Jul-14 04:33N 31°49' E 120°57'0 0.0
2014-Jul-14 02:09N 31°49' E 120°57'0 0.0
2014-Jul-14 01:33N 31°49' E 120°57'0 0.0
2014-Jul-14 00:33N 31°49' E 120°57'0 0.0
2014-Jul-13 23:33N 31°49' E 120°57'0 0.0
2014-Jul-13 22:15N 31°49' E 120°57'0 0.0
2014-Jul-13 21:33N 31°49' E 120°57'0 0.0
2014-Jul-13 20:33N 31°49' E 120°57'0 0.0
2014-Jul-13 19:33N 31°49' E 120°57'0 0.0
2014-Jul-13 18:33N 31°49' E 120°57'0 0.0
2014-Jul-13 17:27N 31°49' E 120°57'0 0.0
2014-Jul-13 16:27N 31°49' E 120°57'0 0.0
2014-Jul-13 15:33N 31°49' E 120°57'0 0.0
2014-Jul-13 14:33N 31°49' E 120°57'0 0.4
2014-Jul-13 13:34N 31°48' E 120°57'2 2.4
2014-Jul-13 12:33N 31°50' E 120°54'1 0.7
2014-Jul-13 11:33N 31°49' E 120°55'5 5.2
2014-Jul-13 10:33N 31°47' E 121°00'3 2.7
2014-Jul-13 09:31N 31°46' E 121°04'8 7.8
2014-Jul-13 08:30N 31°41' E 121°11'1010.0
2014-Jul-13 07:29N 31°34' E 121°19'1111.4
2014-Jul-13 06:33N 31°27' E 121°29'7 7.0
2014-Jul-13 05:33N 31°23' E 121°36'1010.1
2014-Jul-13 04:33N 31°17' E 121°45'33 9.7
2014-Jul-13 01:07N 31°02' E 122°20'610.1
2014-Jul-13 00:32N 31°01' E 122°26'11 9.1
2014-Jul-12 23:18N 30°60' E 122°39'  
Track history (hours):
 
Tides and Currents Weather Stations Pressure Air Temp Water Temp Dewpoint Dewpoint Depression Visibility Wind Speed Wind Dir Waves Ship Positions

Kayu Ramin

Last reported at 2014-Jul-22 06:09 UTC. Time now 2014-Jul-28 08:17 UTC.
Position N 22°19' E 119°34'.

Length 225 m; draft 8.7 m.

Type: Cargo ship. MMSI: 354989000.

Date/timePositionNaut miles runAvg speedWind from/ knotsBaromVisibWave heightAir tempDewpointWater temp
2014-Jul-22 06:09N 22°19' E 119°34'712.1
2014-Jul-22 05:32N 22°25' E 119°38'1211.9
2014-Jul-22 04:33N 22°29' E 119°50'1212.2
2014-Jul-22 03:33N 22°41' E 119°51'48311.1
2014-Jul-20 08:10N 30°07' E 123°18'79 4.5
2014-Jul-19 14:32N 31°06' E 122°18'3012.1
2014-Jul-19 12:04N 31°18' E 121°46'610.9
2014-Jul-19 11:33N 31°21' E 121°40'9 9.2
2014-Jul-19 10:33N 31°25' E 121°30'7 6.8
2014-Jul-19 09:33N 31°30' E 121°25'7 6.8
2014-Jul-19 08:28N 31°36' E 121°19'0 0.1
2014-Jul-19 06:14N 31°36' E 121°19'7 9.4
2014-Jul-19 05:30N 31°40' E 121°13'1212.8
2014-Jul-19 04:32N 31°47' E 121°01'4 3.4
2014-Jul-19 03:22N 31°49' E 120°57'0 0.0
2014-Jul-19 02:31N 31°49' E 120°57'0 0.0
2014-Jul-19 01:22N 31°49' E 120°57'0 0.0
2014-Jul-19 00:16N 31°49' E 120°57'0 0.0
2014-Jul-18 23:25N 31°49' E 120°57'0 0.0
2014-Jul-18 22:31N 31°49' E 120°57'0 0.0
2014-Jul-18 21:31N 31°49' E 120°57'0 0.0
2014-Jul-18 20:31N 31°49' E 120°57'0 0.0
2014-Jul-18 19:31N 31°49' E 120°57'0 0.0
2014-Jul-18 18:28N 31°49' E 120°57'0 0.0
2014-Jul-18 17:22N 31°49' E 120°57'0 0.0
2014-Jul-18 16:22N 31°49' E 120°57'0 0.0
2014-Jul-18 15:31N 31°49' E 120°57'0 0.0
2014-Jul-18 14:19N 31°49' E 120°57'0 0.0
2014-Jul-18 13:28N 31°49' E 120°57'0 0.0
2014-Jul-18 12:10N 31°49' E 120°57'0 0.0
2014-Jul-18 11:21N 31°49' E 120°57'0 0.0
2014-Jul-18 10:21N 31°49' E 120°57'0 0.0
2014-Jul-18 09:30N 31°49' E 120°57'0 0.0
2014-Jul-18 08:33N 31°49' E 120°57'0 0.0
2014-Jul-18 07:27N 31°49' E 120°57'0 0.0
2014-Jul-18 06:33N 31°49' E 120°57'0 0.0
2014-Jul-18 05:21N 31°49' E 120°57'0 0.0
2014-Jul-18 04:33N 31°49' E 120°57'0 0.0
2014-Jul-18 03:33N 31°49' E 120°57'0 0.0
2014-Jul-18 02:30N 31°49' E 120°57'0 0.0
2014-Jul-18 01:33N 31°49' E 120°57'0 0.0
2014-Jul-18 00:33N 31°49' E 120°57'0 0.0
2014-Jul-17 23:24N 31°49' E 120°57'0 0.0
2014-Jul-17 22:30N 31°49' E 120°57'0 0.0
2014-Jul-17 21:30N 31°49' E 120°57'0 0.0
2014-Jul-17 20:30N 31°49' E 120°57'0 0.0
2014-Jul-17 19:33N 31°49' E 120°57'0 0.0
2014-Jul-17 18:33N 31°49' E 120°57'0 0.0
2014-Jul-17 17:27N 31°49' E 120°57'0 0.0
2014-Jul-17 16:33N 31°49' E 120°57'0 0.0
2014-Jul-17 15:33N 31°49' E 120°57'0 0.0
2014-Jul-17 14:24N 31°49' E 120°57'0 0.0
2014-Jul-17 13:33N 31°49' E 120°57'0 0.0
2014-Jul-17 12:33N 31°49' E 120°57'0 0.0
2014-Jul-17 11:27N 31°49' E 120°57'0 0.0
2014-Jul-17 10:33N 31°49' E 120°57'0 0.0
2014-Jul-17 09:27N 31°49' E 120°57'0 0.0
2014-Jul-17 08:33N 31°49' E 120°57'0 0.0
2014-Jul-17 07:27N 31°49' E 120°57'0 0.0
2014-Jul-17 06:30N 31°49' E 120°57'0 0.0
2014-Jul-17 05:33N 31°49' E 120°57'0 0.0
2014-Jul-17 04:33N 31°49' E 120°57'0 0.0
2014-Jul-17 03:33N 31°49' E 120°57'0 0.0
2014-Jul-17 02:33N 31°49' E 120°57'0 0.0
2014-Jul-17 01:27N 31°49' E 120°57'0 0.0
2014-Jul-17 00:29N 31°49' E 120°57'0 0.0
2014-Jul-16 23:32N 31°49' E 120°57'0 0.0
2014-Jul-16 22:26N 31°49' E 120°57'0 0.0
2014-Jul-16 21:23N 31°49' E 120°57'0 0.0
2014-Jul-16 20:32N 31°49' E 120°57'0 0.0
2014-Jul-16 19:32N 31°49' E 120°57'0 0.0
2014-Jul-16 18:32N 31°49' E 120°57'0 0.0
2014-Jul-16 17:29N 31°49' E 120°57'0 0.0
2014-Jul-16 16:29N 31°49' E 120°57'0 0.0
2014-Jul-16 15:32N 31°49' E 120°57'0 0.0
2014-Jul-16 14:32N 31°49' E 120°57'0 0.0
2014-Jul-16 13:29N 31°49' E 120°57'0 0.0
2014-Jul-16 12:29N 31°49' E 120°57'0 0.0
2014-Jul-16 11:23N 31°49' E 120°57'0 0.0
2014-Jul-16 10:32N 31°49' E 120°57'0 0.0
2014-Jul-16 09:20N 31°49' E 120°57'0 0.0
2014-Jul-16 08:32N 31°49' E 120°57'0 0.0
2014-Jul-16 07:29N 31°49' E 120°57'0 0.0
2014-Jul-16 06:26N 31°49' E 120°57'0 0.0
2014-Jul-16 05:23N 31°49' E 120°57'0 0.0
2014-Jul-16 04:20N 31°49' E 120°57'0 0.0
2014-Jul-16 03:17N 31°49' E 120°57'0 0.0
2014-Jul-16 02:29N 31°49' E 120°57'0 0.0
2014-Jul-16 01:26N 31°49' E 120°57'0 0.0
2014-Jul-16 00:32N 31°49' E 120°57'0 0.0
2014-Jul-15 23:32N 31°49' E 120°57'0 0.0
2014-Jul-15 22:32N 31°49' E 120°57'0 0.0
2014-Jul-15 21:32N 31°49' E 120°57'0 0.0
2014-Jul-15 20:29N 31°49' E 120°57'0 0.0
2014-Jul-15 19:32N 31°49' E 120°57'0 0.0
2014-Jul-15 18:29N 31°49' E 120°57'0 0.0
2014-Jul-15 17:26N 31°49' E 120°57'0 0.0
2014-Jul-15 16:23N 31°49' E 120°57'0 0.0
2014-Jul-15 15:29N 31°49' E 120°57'0 0.0
2014-Jul-15 14:29N 31°49' E 120°57'0 0.0
2014-Jul-15 13:31N 31°49' E 120°57'0 0.0
2014-Jul-15 12:31N 31°49' E 120°57'0 0.0
2014-Jul-15 11:22N 31°49' E 120°57'0 0.0
2014-Jul-15 10:31N 31°49' E 120°57'0 0.0
2014-Jul-15 09:19N 31°49' E 120°57'0 0.0
2014-Jul-15 08:31N 31°49' E 120°57'0 0.0
2014-Jul-15 07:31N 31°49' E 120°57'0 0.0
2014-Jul-15 06:25N 31°49' E 120°57'0 0.0
2014-Jul-15 05:28N 31°49' E 120°57'0 0.0
2014-Jul-15 04:31N 31°49' E 120°57'0 0.0
2014-Jul-15 03:07N 31°49' E 120°57'0 0.0
2014-Jul-15 02:31N 31°49' E 120°57'0 0.0
2014-Jul-15 01:31N 31°49' E 120°57'0 0.0
2014-Jul-15 00:31N 31°49' E 120°57'0 0.0
2014-Jul-14 23:31N 31°49' E 120°57'0 0.0
2014-Jul-14 22:31N 31°49' E 120°57'0 0.0
2014-Jul-14 21:31N 31°49' E 120°57'0 0.0
2014-Jul-14 20:31N 31°49' E 120°57'0 0.0
2014-Jul-14 19:25N 31°49' E 120°57'0 0.0
2014-Jul-14 18:31N 31°49' E 120°57'0 0.0
2014-Jul-14 17:22N 31°49' E 120°57'0 0.0
2014-Jul-14 16:31N 31°49' E 120°57'0 0.0
2014-Jul-14 15:28N 31°49' E 120°57'0 0.0
2014-Jul-14 14:31N 31°49' E 120°57'0 0.0
2014-Jul-14 13:24N 31°49' E 120°57'0 0.0
2014-Jul-14 12:33N 31°49' E 120°57'0 0.0
2014-Jul-14 11:33N 31°49' E 120°57'0 0.0
2014-Jul-14 10:27N 31°49' E 120°57'0 0.0
2014-Jul-14 09:27N 31°49' E 120°57'0 0.0
2014-Jul-14 08:27N 31°49' E 120°57'0 0.0
2014-Jul-14 07:27N 31°49' E 120°57'0 0.0
2014-Jul-14 06:33N 31°49' E 120°57'0 0.0
2014-Jul-14 05:27N 31°49' E 120°57'0 0.0
2014-Jul-14 04:33N 31°49' E 120°57'0 0.0
2014-Jul-14 02:09N 31°49' E 120°57'0 0.0
2014-Jul-14 01:33N 31°49' E 120°57'0 0.0
2014-Jul-14 00:33N 31°49' E 120°57'0 0.0
2014-Jul-13 23:33N 31°49' E 120°57'0 0.0
2014-Jul-13 22:15N 31°49' E 120°57'0 0.0
2014-Jul-13 21:33N 31°49' E 120°57'0 0.0
2014-Jul-13 20:33N 31°49' E 120°57'0 0.0
2014-Jul-13 19:33N 31°49' E 120°57'0 0.0
2014-Jul-13 18:33N 31°49' E 120°57'0 0.0
2014-Jul-13 17:27N 31°49' E 120°57'0 0.0
2014-Jul-13 16:27N 31°49' E 120°57'0 0.0
2014-Jul-13 15:33N 31°49' E 120°57'0 0.0
2014-Jul-13 14:33N 31°49' E 120°57'0 0.4
2014-Jul-13 13:34N 31°48' E 120°57'2 2.4
2014-Jul-13 12:33N 31°50' E 120°54'1 0.7
2014-Jul-13 11:33N 31°49' E 120°55'5 5.2
2014-Jul-13 10:33N 31°47' E 121°00'3 2.7
2014-Jul-13 09:31N 31°46' E 121°04'8 7.8
2014-Jul-13 08:30N 31°41' E 121°11'1010.0
2014-Jul-13 07:29N 31°34' E 121°19'1111.4
2014-Jul-13 06:33N 31°27' E 121°29'7 7.0
2014-Jul-13 05:33N 31°23' E 121°36'1010.1
2014-Jul-13 04:33N 31°17' E 121°45'33 9.7
2014-Jul-13 01:07N 31°02' E 122°20'610.1
2014-Jul-13 00:32N 31°01' E 122°26'11 9.1
2014-Jul-12 23:18N 30°60' E 122°39'  

Dump ship's entire track history